Sandane, Sandane Airport (ENSD)

NameSandane Airport
CitySandane
CountryNorway
ICAOENSD
IATASDN
Altitude60 m
CoordinatesGoogle Map
Live Air TrafficLiveATC.net
METARENSD 241750Z VRB01KT CAVOK 16/10 Q1027 RMK WIND 1138FT 30006KT
2019-06-24 17:50:00 Wind: North (0°) 0.51 m/s - Visibility: > 10000 m - Weather: CAVOK - Temperature: 16 °C - Dew point: 10 °C - Humidity: 67.8% - Pressure: 1027 hPa

Sorry, no flights used the airport in this database.